sensor_id;sensor_type;location;lat;lon;timestamp;temperature;humidity
8436;DHT22;4255;48.730;9.156;2022-11-24T00:01:31;7.50;99.90
8436;DHT22;4255;48.730;9.156;2022-11-24T00:03:59;7.60;99.90
8436;DHT22;4255;48.730;9.156;2022-11-24T00:06:26;7.50;99.90
8436;DHT22;4255;48.730;9.156;2022-11-24T00:08:52;7.50;99.90
8436;DHT22;4255;48.730;9.156;2022-11-24T00:11:21;7.60;99.90
8436;DHT22;4255;48.730;9.156;2022-11-24T00:13:47;7.70;99.90
8436;DHT22;4255;48.730;9.156;2022-11-24T00:16:18;7.80;99.90
8436;DHT22;4255;48.730;9.156;2022-11-24T00:18:46;7.80;99.90
8436;DHT22;4255;48.730;9.156;2022-11-24T00:21:13;7.90;99.90
8436;DHT22;4255;48.730;9.156;2022-11-24T00:23:39;7.90;99.90
8436;DHT22;4255;48.730;9.156;2022-11-24T00:26:20;7.80;99.90
8436;DHT22;4255;48.730;9.156;2022-11-24T00:28:47;7.70;99.90
8436;DHT22;4255;48.730;9.156;2022-11-24T00:33:40;7.70;99.90
8436;DHT22;4255;48.730;9.156;2022-11-24T00:36:06;7.70;99.90
8436;DHT22;4255;48.730;9.156;2022-11-24T00:38:32;7.60;99.90
8436;DHT22;4255;48.730;9.156;2022-11-24T00:40:57;7.40;99.90
8436;DHT22;4255;48.730;9.156;2022-11-24T00:43:23;7.40;99.90
8436;DHT22;4255;48.730;9.156;2022-11-24T00:45:48;7.50;99.90
8436;DHT22;4255;48.730;9.156;2022-11-24T00:48:14;7.60;99.90
8436;DHT22;4255;48.730;9.156;2022-11-24T00:50:40;7.60;99.90
8436;DHT22;4255;48.730;9.156;2022-11-24T00:53:05;7.50;99.90
8436;DHT22;4255;48.730;9.156;2022-11-24T00:55:31;7.40;99.90
8436;DHT22;4255;48.730;9.156;2022-11-24T00:57:57;7.30;99.90
8436;DHT22;4255;48.730;9.156;2022-11-24T01:00:22;7.30;99.90
8436;DHT22;4255;48.730;9.156;2022-11-24T01:02:48;7.30;99.90
8436;DHT22;4255;48.730;9.156;2022-11-24T01:05:13;7.40;99.90
8436;DHT22;4255;48.730;9.156;2022-11-24T01:07:39;7.40;99.90
8436;DHT22;4255;48.730;9.156;2022-11-24T01:10:05;7.20;99.90
8436;DHT22;4255;48.730;9.156;2022-11-24T01:12:31;7.20;99.90
8436;DHT22;4255;48.730;9.156;2022-11-24T01:14:57;7.10;99.90
8436;DHT22;4255;48.730;9.156;2022-11-24T01:17:23;6.90;99.90
8436;DHT22;4255;48.730;9.156;2022-11-24T01:19:49;6.90;99.90
8436;DHT22;4255;48.730;9.156;2022-11-24T01:22:15;6.90;99.90
8436;DHT22;4255;48.730;9.156;2022-11-24T01:24:41;7.00;99.90
8436;DHT22;4255;48.730;9.156;2022-11-24T01:27:06;7.10;99.90
8436;DHT22;4255;48.730;9.156;2022-11-24T01:29:32;7.20;99.90
8436;DHT22;4255;48.730;9.156;2022-11-24T01:31:58;7.20;99.90
8436;DHT22;4255;48.730;9.156;2022-11-24T01:34:23;7.20;99.90
8436;DHT22;4255;48.730;9.156;2022-11-24T01:36:49;7.20;99.90
8436;DHT22;4255;48.730;9.156;2022-11-24T01:39:14;7.20;99.90
8436;DHT22;4255;48.730;9.156;2022-11-24T01:41:40;7.20;99.90
8436;DHT22;4255;48.730;9.156;2022-11-24T01:44:24;7.30;99.90
8436;DHT22;4255;48.730;9.156;2022-11-24T01:46:59;7.30;99.90
8436;DHT22;4255;48.730;9.156;2022-11-24T01:49:47;7.20;99.90
8436;DHT22;4255;48.730;9.156;2022-11-24T01:52:23;7.20;99.90
8436;DHT22;4255;48.730;9.156;2022-11-24T01:54:55;7.10;99.90
8436;DHT22;4255;48.730;9.156;2022-11-24T01:57:28;7.10;99.90
8436;DHT22;4255;48.730;9.156;2022-11-24T02:00:03;7.20;99.90
8436;DHT22;4255;48.730;9.156;2022-11-24T02:02:29;7.30;99.90
8436;DHT22;4255;48.730;9.156;2022-11-24T02:04:58;7.40;99.90
8436;DHT22;4255;48.730;9.156;2022-11-24T02:07:25;7.60;99.90
8436;DHT22;4255;48.730;9.156;2022-11-24T02:09:54;7.50;99.90
8436;DHT22;4255;48.730;9.156;2022-11-24T02:12:22;7.60;99.90
8436;DHT22;4255;48.730;9.156;2022-11-24T02:14:49;7.40;99.90
8436;DHT22;4255;48.730;9.156;2022-11-24T02:17:16;7.50;99.90
8436;DHT22;4255;48.730;9.156;2022-11-24T02:19:59;7.50;99.90
8436;DHT22;4255;48.730;9.156;2022-11-24T02:22:53;7.40;99.90
8436;DHT22;4255;48.730;9.156;2022-11-24T02:28:12;7.10;99.90
8436;DHT22;4255;48.730;9.156;2022-11-24T02:30:39;7.00;99.90
8436;DHT22;4255;48.730;9.156;2022-11-24T02:33:05;7.00;99.90
8436;DHT22;4255;48.730;9.156;2022-11-24T02:35:31;7.00;99.90
8436;DHT22;4255;48.730;9.156;2022-11-24T02:37:57;7.10;99.90
8436;DHT22;4255;48.730;9.156;2022-11-24T02:40:24;7.00;99.90
8436;DHT22;4255;48.730;9.156;2022-11-24T02:42:53;6.90;99.90
8436;DHT22;4255;48.730;9.156;2022-11-24T02:45:21;6.90;99.90
8436;DHT22;4255;48.730;9.156;2022-11-24T02:47:47;7.00;99.90
8436;DHT22;4255;48.730;9.156;2022-11-24T02:50:13;7.00;99.90
8436;DHT22;4255;48.730;9.156;2022-11-24T02:52:38;7.00;99.90
8436;DHT22;4255;48.730;9.156;2022-11-24T02:55:04;7.00;99.90
8436;DHT22;4255;48.730;9.156;2022-11-24T02:57:30;7.10;99.90
8436;DHT22;4255;48.730;9.156;2022-11-24T02:59:56;7.10;99.90
8436;DHT22;4255;48.730;9.156;2022-11-24T03:02:21;7.20;99.90
8436;DHT22;4255;48.730;9.156;2022-11-24T03:04:47;7.20;99.90
8436;DHT22;4255;48.730;9.156;2022-11-24T03:07:13;7.40;99.90
8436;DHT22;4255;48.730;9.156;2022-11-24T03:09:39;7.40;99.90
8436;DHT22;4255;48.730;9.156;2022-11-24T03:12:05;7.40;99.90
8436;DHT22;4255;48.730;9.156;2022-11-24T03:14:30;7.40;99.90
8436;DHT22;4255;48.730;9.156;2022-11-24T03:16:56;7.40;99.90
8436;DHT22;4255;48.730;9.156;2022-11-24T03:19:22;7.20;99.90
8436;DHT22;4255;48.730;9.156;2022-11-24T03:21:47;7.00;99.90
8436;DHT22;4255;48.730;9.156;2022-11-24T03:24:13;6.90;99.90
8436;DHT22;4255;48.730;9.156;2022-11-24T03:26:38;6.90;99.90
8436;DHT22;4255;48.730;9.156;2022-11-24T03:29:04;6.90;99.90
8436;DHT22;4255;48.730;9.156;2022-11-24T03:31:30;6.90;99.90
8436;DHT22;4255;48.730;9.156;2022-11-24T03:33:55;7.00;99.90
8436;DHT22;4255;48.730;9.156;2022-11-24T03:36:21;7.00;99.90
8436;DHT22;4255;48.730;9.156;2022-11-24T03:38:46;6.90;99.90
8436;DHT22;4255;48.730;9.156;2022-11-24T03:41:12;6.90;99.90
8436;DHT22;4255;48.730;9.156;2022-11-24T03:43:38;6.80;99.90
8436;DHT22;4255;48.730;9.156;2022-11-24T03:46:03;6.80;99.90
8436;DHT22;4255;48.730;9.156;2022-11-24T03:48:30;6.90;99.90
8436;DHT22;4255;48.730;9.156;2022-11-24T03:50:57;6.90;99.90
8436;DHT22;4255;48.730;9.156;2022-11-24T03:53:24;7.00;99.90
8436;DHT22;4255;48.730;9.156;2022-11-24T03:55:50;6.90;99.90
8436;DHT22;4255;48.730;9.156;2022-11-24T03:58:16;6.90;99.90
8436;DHT22;4255;48.730;9.156;2022-11-24T04:00:42;7.00;99.90
8436;DHT22;4255;48.730;9.156;2022-11-24T04:03:07;6.90;99.90
8436;DHT22;4255;48.730;9.156;2022-11-24T04:05:33;6.90;99.90
8436;DHT22;4255;48.730;9.156;2022-11-24T04:08:01;7.00;99.90
8436;DHT22;4255;48.730;9.156;2022-11-24T04:10:28;7.00;99.90
8436;DHT22;4255;48.730;9.156;2022-11-24T04:12:54;7.00;99.90
8436;DHT22;4255;48.730;9.156;2022-11-24T04:15:20;6.90;99.90
8436;DHT22;4255;48.730;9.156;2022-11-24T04:17:47;6.90;99.90
8436;DHT22;4255;48.730;9.156;2022-11-24T04:20:14;6.90;99.90
8436;DHT22;4255;48.730;9.156;2022-11-24T04:22:40;6.70;99.90
8436;DHT22;4255;48.730;9.156;2022-11-24T04:25:06;6.70;99.90
8436;DHT22;4255;48.730;9.156;2022-11-24T04:27:34;6.70;99.90
8436;DHT22;4255;48.730;9.156;2022-11-24T04:30:00;6.60;99.90
8436;DHT22;4255;48.730;9.156;2022-11-24T04:32:25;6.50;99.90
8436;DHT22;4255;48.730;9.156;2022-11-24T04:34:51;6.50;99.90
8436;DHT22;4255;48.730;9.156;2022-11-24T04:37:17;6.60;99.90
8436;DHT22;4255;48.730;9.156;2022-11-24T04:39:43;6.60;99.90
8436;DHT22;4255;48.730;9.156;2022-11-24T04:42:10;6.60;99.90
8436;DHT22;4255;48.730;9.156;2022-11-24T04:44:36;6.70;99.90
8436;DHT22;4255;48.730;9.156;2022-11-24T04:47:02;6.80;99.90
8436;DHT22;4255;48.730;9.156;2022-11-24T04:49:28;6.90;99.90
8436;DHT22;4255;48.730;9.156;2022-11-24T04:51:53;6.90;99.90
8436;DHT22;4255;48.730;9.156;2022-11-24T04:54:19;6.90;99.90
8436;DHT22;4255;48.730;9.156;2022-11-24T04:56:46;7.00;99.90
8436;DHT22;4255;48.730;9.156;2022-11-24T04:59:14;7.10;99.90
8436;DHT22;4255;48.730;9.156;2022-11-24T05:01:44;7.00;99.90
8436;DHT22;4255;48.730;9.156;2022-11-24T05:04:11;6.90;99.90
8436;DHT22;4255;48.730;9.156;2022-11-24T05:06:38;6.90;99.90
8436;DHT22;4255;48.730;9.156;2022-11-24T05:09:04;6.90;99.90
8436;DHT22;4255;48.730;9.156;2022-11-24T05:11:31;6.90;99.90
8436;DHT22;4255;48.730;9.156;2022-11-24T05:13:56;6.80;99.90
8436;DHT22;4255;48.730;9.156;2022-11-24T05:16:22;6.70;99.90
8436;DHT22;4255;48.730;9.156;2022-11-24T05:18:48;6.70;99.90
8436;DHT22;4255;48.730;9.156;2022-11-24T05:21:13;6.70;99.90
8436;DHT22;4255;48.730;9.156;2022-11-24T05:23:39;6.70;99.90
8436;DHT22;4255;48.730;9.156;2022-11-24T05:26:04;6.70;99.90
8436;DHT22;4255;48.730;9.156;2022-11-24T05:28:30;6.50;99.90
8436;DHT22;4255;48.730;9.156;2022-11-24T05:31:00;6.40;99.90
8436;DHT22;4255;48.730;9.156;2022-11-24T05:33:27;6.40;99.90
8436;DHT22;4255;48.730;9.156;2022-11-24T05:35:54;6.50;99.90
8436;DHT22;4255;48.730;9.156;2022-11-24T05:38:20;6.60;99.90
8436;DHT22;4255;48.730;9.156;2022-11-24T05:40:48;6.70;99.90
8436;DHT22;4255;48.730;9.156;2022-11-24T05:43:15;6.70;99.90
8436;DHT22;4255;48.730;9.156;2022-11-24T05:45:41;6.70;99.90
8436;DHT22;4255;48.730;9.156;2022-11-24T05:48:12;6.60;99.90
8436;DHT22;4255;48.730;9.156;2022-11-24T05:50:39;6.60;99.90
8436;DHT22;4255;48.730;9.156;2022-11-24T05:53:07;6.60;99.90
8436;DHT22;4255;48.730;9.156;2022-11-24T05:55:33;6.60;99.90
8436;DHT22;4255;48.730;9.156;2022-11-24T05:58:07;6.60;99.90
8436;DHT22;4255;48.730;9.156;2022-11-24T06:00:34;6.60;99.90
8436;DHT22;4255;48.730;9.156;2022-11-24T06:03:00;6.70;99.90
8436;DHT22;4255;48.730;9.156;2022-11-24T06:05:27;6.60;99.90
8436;DHT22;4255;48.730;9.156;2022-11-24T06:07:53;6.70;99.90
8436;DHT22;4255;48.730;9.156;2022-11-24T06:10:20;6.70;99.90
8436;DHT22;4255;48.730;9.156;2022-11-24T06:12:46;6.80;99.90
8436;DHT22;4255;48.730;9.156;2022-11-24T06:15:12;6.80;99.90
8436;DHT22;4255;48.730;9.156;2022-11-24T06:17:39;6.80;99.90
8436;DHT22;4255;48.730;9.156;2022-11-24T06:20:05;6.60;99.90
8436;DHT22;4255;48.730;9.156;2022-11-24T06:22:31;6.70;99.90
8436;DHT22;4255;48.730;9.156;2022-11-24T06:24:57;6.80;99.90
8436;DHT22;4255;48.730;9.156;2022-11-24T06:27:23;6.80;99.90
8436;DHT22;4255;48.730;9.156;2022-11-24T06:29:48;6.80;99.90
8436;DHT22;4255;48.730;9.156;2022-11-24T06:32:14;6.90;99.90
8436;DHT22;4255;48.730;9.156;2022-11-24T06:34:40;7.00;99.90
8436;DHT22;4255;48.730;9.156;2022-11-24T06:37:06;7.10;99.90
8436;DHT22;4255;48.730;9.156;2022-11-24T06:39:31;7.10;99.90
8436;DHT22;4255;48.730;9.156;2022-11-24T06:41:57;7.20;99.90
8436;DHT22;4255;48.730;9.156;2022-11-24T06:44:23;7.20;99.90
8436;DHT22;4255;48.730;9.156;2022-11-24T06:46:48;7.20;99.90
8436;DHT22;4255;48.730;9.156;2022-11-24T06:49:14;7.20;99.90
8436;DHT22;4255;48.730;9.156;2022-11-24T06:51:40;7.30;99.90
8436;DHT22;4255;48.730;9.156;2022-11-24T06:54:07;7.40;99.90
8436;DHT22;4255;48.730;9.156;2022-11-24T06:56:33;7.20;99.90
8436;DHT22;4255;48.730;9.156;2022-11-24T06:58:59;7.40;99.90
8436;DHT22;4255;48.730;9.156;2022-11-24T07:01:26;7.50;99.90
8436;DHT22;4255;48.730;9.156;2022-11-24T07:03:53;7.50;99.90
8436;DHT22;4255;48.730;9.156;2022-11-24T07:06:20;7.60;99.90
8436;DHT22;4255;48.730;9.156;2022-11-24T07:08:47;7.70;99.90
8436;DHT22;4255;48.730;9.156;2022-11-24T07:11:15;7.80;99.90
8436;DHT22;4255;48.730;9.156;2022-11-24T07:13:42;7.90;99.90
8436;DHT22;4255;48.730;9.156;2022-11-24T07:16:17;8.00;99.90
8436;DHT22;4255;48.730;9.156;2022-11-24T07:18:45;8.10;99.90
8436;DHT22;4255;48.730;9.156;2022-11-24T07:21:11;8.10;99.90
8436;DHT22;4255;48.730;9.156;2022-11-24T07:23:37;8.20;99.90
8436;DHT22;4255;48.730;9.156;2022-11-24T07:26:03;8.20;99.90
8436;DHT22;4255;48.730;9.156;2022-11-24T07:28:29;8.10;99.90
8436;DHT22;4255;48.730;9.156;2022-11-24T07:30:55;8.20;99.90
8436;DHT22;4255;48.730;9.156;2022-11-24T07:33:21;8.10;99.90
8436;DHT22;4255;48.730;9.156;2022-11-24T07:35:53;8.20;99.90
8436;DHT22;4255;48.730;9.156;2022-11-24T07:38:19;8.10;99.90
8436;DHT22;4255;48.730;9.156;2022-11-24T07:40:45;8.00;99.90
8436;DHT22;4255;48.730;9.156;2022-11-24T07:43:11;7.90;99.90
8436;DHT22;4255;48.730;9.156;2022-11-24T07:45:36;8.10;99.90
8436;DHT22;4255;48.730;9.156;2022-11-24T07:48:02;8.10;99.90
8436;DHT22;4255;48.730;9.156;2022-11-24T07:50:28;8.10;99.90
8436;DHT22;4255;48.730;9.156;2022-11-24T07:52:54;8.00;99.90
8436;DHT22;4255;48.730;9.156;2022-11-24T07:55:19;8.00;99.90
8436;DHT22;4255;48.730;9.156;2022-11-24T07:57:45;8.00;99.90
8436;DHT22;4255;48.730;9.156;2022-11-24T08:00:11;8.10;99.90
8436;DHT22;4255;48.730;9.156;2022-11-24T08:02:37;7.90;99.90
8436;DHT22;4255;48.730;9.156;2022-11-24T08:05:03;7.90;99.90
8436;DHT22;4255;48.730;9.156;2022-11-24T08:07:29;7.80;99.90
8436;DHT22;4255;48.730;9.156;2022-11-24T08:09:55;7.70;99.90
8436;DHT22;4255;48.730;9.156;2022-11-24T08:12:20;7.80;99.90
8436;DHT22;4255;48.730;9.156;2022-11-24T08:14:49;7.90;99.90
8436;DHT22;4255;48.730;9.156;2022-11-24T08:17:18;7.80;99.90
8436;DHT22;4255;48.730;9.156;2022-11-24T08:19:44;7.90;99.90
8436;DHT22;4255;48.730;9.156;2022-11-24T08:22:10;8.00;99.90
8436;DHT22;4255;48.730;9.156;2022-11-24T08:24:36;8.00;99.90
8436;DHT22;4255;48.730;9.156;2022-11-24T08:27:02;8.10;99.90
8436;DHT22;4255;48.730;9.156;2022-11-24T08:29:30;8.10;99.90
8436;DHT22;4255;48.730;9.156;2022-11-24T08:31:56;8.20;99.90
8436;DHT22;4255;48.730;9.156;2022-11-24T08:34:23;8.20;99.90
8436;DHT22;4255;48.730;9.156;2022-11-24T08:36:50;8.20;99.90
8436;DHT22;4255;48.730;9.156;2022-11-24T08:39:16;8.20;99.90
8436;DHT22;4255;48.730;9.156;2022-11-24T08:41:42;8.10;99.90
8436;DHT22;4255;48.730;9.156;2022-11-24T08:44:08;8.00;99.90
8436;DHT22;4255;48.730;9.156;2022-11-24T08:46:35;8.20;99.90
8436;DHT22;4255;48.730;9.156;2022-11-24T08:49:01;8.30;99.90
8436;DHT22;4255;48.730;9.156;2022-11-24T08:51:28;8.40;99.90
8436;DHT22;4255;48.730;9.156;2022-11-24T08:53:58;8.50;99.90
8436;DHT22;4255;48.730;9.156;2022-11-24T08:56:26;8.40;99.90
8436;DHT22;4255;48.730;9.156;2022-11-24T08:58:53;8.50;99.90
8436;DHT22;4255;48.730;9.156;2022-11-24T09:01:20;8.70;99.90
8436;DHT22;4255;48.730;9.156;2022-11-24T09:03:47;8.70;99.90
8436;DHT22;4255;48.730;9.156;2022-11-24T09:06:13;8.80;99.90
8436;DHT22;4255;48.730;9.156;2022-11-24T09:08:39;8.70;99.90
8436;DHT22;4255;48.730;9.156;2022-11-24T09:11:10;8.70;99.90
8436;DHT22;4255;48.730;9.156;2022-11-24T09:13:37;8.80;99.90
8436;DHT22;4255;48.730;9.156;2022-11-24T09:16:14;8.90;99.90
8436;DHT22;4255;48.730;9.156;2022-11-24T09:18:40;8.80;99.90
8436;DHT22;4255;48.730;9.156;2022-11-24T09:21:12;8.90;99.90
8436;DHT22;4255;48.730;9.156;2022-11-24T09:23:39;8.90;99.90
8436;DHT22;4255;48.730;9.156;2022-11-24T09:26:07;8.80;99.90
8436;DHT22;4255;48.730;9.156;2022-11-24T09:28:34;8.70;99.90
8436;DHT22;4255;48.730;9.156;2022-11-24T09:31:05;8.50;99.90
8436;DHT22;4255;48.730;9.156;2022-11-24T09:33:31;8.50;99.90
8436;DHT22;4255;48.730;9.156;2022-11-24T09:35:57;8.50;99.90
8436;DHT22;4255;48.730;9.156;2022-11-24T09:38:23;8.20;99.90
8436;DHT22;4255;48.730;9.156;2022-11-24T09:40:49;8.20;99.90
8436;DHT22;4255;48.730;9.156;2022-11-24T09:43:32;8.10;99.90
8436;DHT22;4255;48.730;9.156;2022-11-24T09:46:09;8.20;99.90
8436;DHT22;4255;48.730;9.156;2022-11-24T09:48:45;8.20;99.90
8436;DHT22;4255;48.730;9.156;2022-11-24T09:51:13;8.20;99.90
8436;DHT22;4255;48.730;9.156;2022-11-24T09:53:43;8.30;99.90
8436;DHT22;4255;48.730;9.156;2022-11-24T09:56:26;8.50;99.90
8436;DHT22;4255;48.730;9.156;2022-11-24T09:59:05;8.50;99.90
8436;DHT22;4255;48.730;9.156;2022-11-24T10:01:35;8.60;99.90
8436;DHT22;4255;48.730;9.156;2022-11-24T10:04:02;8.70;99.90
8436;DHT22;4255;48.730;9.156;2022-11-24T10:06:32;8.80;99.90
8436;DHT22;4255;48.730;9.156;2022-11-24T10:11:46;8.70;99.90
8436;DHT22;4255;48.730;9.156;2022-11-24T10:22:34;9.40;99.90
8436;DHT22;4255;48.730;9.156;2022-11-24T10:25:23;9.70;99.90
8436;DHT22;4255;48.730;9.156;2022-11-24T10:28:00;10.10;99.90
8436;DHT22;4255;48.730;9.156;2022-11-24T10:30:26;10.50;99.90
8436;DHT22;4255;48.730;9.156;2022-11-24T10:32:57;10.60;99.90
8436;DHT22;4255;48.730;9.156;2022-11-24T10:35:38;10.70;99.90
8436;DHT22;4255;48.730;9.156;2022-11-24T10:38:15;10.70;99.90
8436;DHT22;4255;48.730;9.156;2022-11-24T10:41:11;10.40;99.90
8436;DHT22;4255;48.730;9.156;2022-11-24T10:43:40;10.10;99.90
8436;DHT22;4255;48.730;9.156;2022-11-24T10:46:14;10.00;99.90
8436;DHT22;4255;48.730;9.156;2022-11-24T10:48:48;10.00;99.90
8436;DHT22;4255;48.730;9.156;2022-11-24T10:54:04;9.70;99.90
8436;DHT22;4255;48.730;9.156;2022-11-24T10:56:42;9.80;99.90
8436;DHT22;4255;48.730;9.156;2022-11-24T11:01:50;10.20;99.90
8436;DHT22;4255;48.730;9.156;2022-11-24T11:04:28;10.30;99.90
8436;DHT22;4255;48.730;9.156;2022-11-24T11:07:16;10.40;99.90
8436;DHT22;4255;48.730;9.156;2022-11-24T11:09:43;10.40;99.90
8436;DHT22;4255;48.730;9.156;2022-11-24T11:12:23;10.40;99.90
8436;DHT22;4255;48.730;9.156;2022-11-24T11:14:51;10.50;99.90
8436;DHT22;4255;48.730;9.156;2022-11-24T11:17:33;10.40;99.90
8436;DHT22;4255;48.730;9.156;2022-11-24T11:20:16;10.80;99.90
8436;DHT22;4255;48.730;9.156;2022-11-24T11:22:44;10.80;99.90
8436;DHT22;4255;48.730;9.156;2022-11-24T11:27:38;11.00;99.90
8436;DHT22;4255;48.730;9.156;2022-11-24T11:30:17;11.20;99.90
8436;DHT22;4255;48.730;9.156;2022-11-24T11:32:52;11.30;99.90
8436;DHT22;4255;48.730;9.156;2022-11-24T11:35:18;11.40;99.90
8436;DHT22;4255;48.730;9.156;2022-11-24T11:37:47;11.40;99.90
8436;DHT22;4255;48.730;9.156;2022-11-24T11:40:31;11.00;99.90
8436;DHT22;4255;48.730;9.156;2022-11-24T11:43:20;10.70;99.90
8436;DHT22;4255;48.730;9.156;2022-11-24T11:45:58;10.80;99.90
8436;DHT22;4255;48.730;9.156;2022-11-24T11:48:35;10.80;99.90
8436;DHT22;4255;48.730;9.156;2022-11-24T11:57:09;10.80;99.90
8436;DHT22;4255;48.730;9.156;2022-11-24T11:59:44;10.60;99.90
8436;DHT22;4255;48.730;9.156;2022-11-24T12:10:49;10.70;99.90
8436;DHT22;4255;48.730;9.156;2022-11-24T12:13:29;10.60;99.90
8436;DHT22;4255;48.730;9.156;2022-11-24T12:21:37;11.20;99.90
8436;DHT22;4255;48.730;9.156;2022-11-24T12:30:09;11.60;99.90
8436;DHT22;4255;48.730;9.156;2022-11-24T12:40:47;10.90;99.90
8436;DHT22;4255;48.730;9.156;2022-11-24T12:43:23;10.60;99.90
8436;DHT22;4255;48.730;9.156;2022-11-24T12:51:17;10.50;99.90
8436;DHT22;4255;48.730;9.156;2022-11-24T12:53:45;10.50;99.90
8436;DHT22;4255;48.730;9.156;2022-11-24T12:56:13;10.50;99.90
8436;DHT22;4255;48.730;9.156;2022-11-24T12:58:50;10.60;99.90
8436;DHT22;4255;48.730;9.156;2022-11-24T13:09:10;10.40;99.90
8436;DHT22;4255;48.730;9.156;2022-11-24T13:11:44;10.40;99.90
8436;DHT22;4255;48.730;9.156;2022-11-24T13:14:16;10.60;99.90
8436;DHT22;4255;48.730;9.156;2022-11-24T13:17:02;10.60;99.90
8436;DHT22;4255;48.730;9.156;2022-11-24T13:19:35;10.90;99.90
8436;DHT22;4255;48.730;9.156;2022-11-24T13:24:35;10.70;99.90
8436;DHT22;4255;48.730;9.156;2022-11-24T13:29:47;10.60;99.90
8436;DHT22;4255;48.730;9.156;2022-11-24T13:42:20;11.20;99.90
8436;DHT22;4255;48.730;9.156;2022-11-24T13:44:59;11.00;99.90
8436;DHT22;4255;48.730;9.156;2022-11-24T13:47:30;11.00;99.90
8436;DHT22;4255;48.730;9.156;2022-11-24T13:49:56;11.20;99.90
8436;DHT22;4255;48.730;9.156;2022-11-24T13:55:18;11.20;99.90
8436;DHT22;4255;48.730;9.156;2022-11-24T13:57:50;11.10;99.90
8436;DHT22;4255;48.730;9.156;2022-11-24T14:06:39;11.20;99.90
8436;DHT22;4255;48.730;9.156;2022-11-24T14:11:57;11.00;99.90
8436;DHT22;4255;48.730;9.156;2022-11-24T14:14:23;10.80;99.90
8436;DHT22;4255;48.730;9.156;2022-11-24T14:17:05;10.70;99.90
8436;DHT22;4255;48.730;9.156;2022-11-24T14:19:31;10.60;99.90
8436;DHT22;4255;48.730;9.156;2022-11-24T14:21:56;10.60;99.90
8436;DHT22;4255;48.730;9.156;2022-11-24T14:24:23;10.70;99.90
8436;DHT22;4255;48.730;9.156;2022-11-24T14:26:50;10.70;99.90
8436;DHT22;4255;48.730;9.156;2022-11-24T14:29:19;10.70;99.90
8436;DHT22;4255;48.730;9.156;2022-11-24T14:32:00;10.90;99.90
8436;DHT22;4255;48.730;9.156;2022-11-24T14:34:28;10.90;99.90
8436;DHT22;4255;48.730;9.156;2022-11-24T14:36:55;11.00;99.90
8436;DHT22;4255;48.730;9.156;2022-11-24T14:39:23;10.90;99.90
8436;DHT22;4255;48.730;9.156;2022-11-24T14:47:12;10.80;99.90
8436;DHT22;4255;48.730;9.156;2022-11-24T14:49:40;10.60;99.90
8436;DHT22;4255;48.730;9.156;2022-11-24T14:52:16;10.60;99.90
8436;DHT22;4255;48.730;9.156;2022-11-24T14:54:56;10.60;99.90
8436;DHT22;4255;48.730;9.156;2022-11-24T14:57:31;10.50;99.90
8436;DHT22;4255;48.730;9.156;2022-11-24T15:05:10;10.60;99.90
8436;DHT22;4255;48.730;9.156;2022-11-24T15:07:38;10.40;99.90
8436;DHT22;4255;48.730;9.156;2022-11-24T15:10:16;10.50;99.90
8436;DHT22;4255;48.730;9.156;2022-11-24T15:12:55;10.50;99.90
8436;DHT22;4255;48.730;9.156;2022-11-24T15:15:29;10.40;99.90
8436;DHT22;4255;48.730;9.156;2022-11-24T15:17:57;10.30;99.90
8436;DHT22;4255;48.730;9.156;2022-11-24T15:25:41;10.30;99.90
8436;DHT22;4255;48.730;9.156;2022-11-24T15:28:07;10.00;99.90
8436;DHT22;4255;48.730;9.156;2022-11-24T15:30:34;9.90;99.90
8436;DHT22;4255;48.730;9.156;2022-11-24T15:33:00;9.90;99.90
8436;DHT22;4255;48.730;9.156;2022-11-24T15:35:31;9.80;99.90
8436;DHT22;4255;48.730;9.156;2022-11-24T15:37:57;9.80;99.90
8436;DHT22;4255;48.730;9.156;2022-11-24T15:40:23;9.70;99.90
8436;DHT22;4255;48.730;9.156;2022-11-24T15:42:55;9.80;99.90
8436;DHT22;4255;48.730;9.156;2022-11-24T15:45:22;9.90;99.90
8436;DHT22;4255;48.730;9.156;2022-11-24T15:47:48;9.90;99.90
8436;DHT22;4255;48.730;9.156;2022-11-24T15:50:14;9.90;99.90
8436;DHT22;4255;48.730;9.156;2022-11-24T15:52:40;10.10;99.90
8436;DHT22;4255;48.730;9.156;2022-11-24T15:55:20;10.20;99.90
8436;DHT22;4255;48.730;9.156;2022-11-24T15:57:47;10.20;99.90
8436;DHT22;4255;48.730;9.156;2022-11-24T16:00:22;10.10;99.90
8436;DHT22;4255;48.730;9.156;2022-11-24T16:02:49;9.90;99.90
8436;DHT22;4255;48.730;9.156;2022-11-24T16:05:15;9.70;99.90
8436;DHT22;4255;48.730;9.156;2022-11-24T16:07:42;9.70;99.90
8436;DHT22;4255;48.730;9.156;2022-11-24T16:10:25;9.60;99.90
8436;DHT22;4255;48.730;9.156;2022-11-24T16:12:52;9.60;99.90
8436;DHT22;4255;48.730;9.156;2022-11-24T16:15:17;9.50;99.90
8436;DHT22;4255;48.730;9.156;2022-11-24T16:17:43;9.40;99.90
8436;DHT22;4255;48.730;9.156;2022-11-24T16:20:09;9.40;99.90
8436;DHT22;4255;48.730;9.156;2022-11-24T16:22:34;9.40;99.90
8436;DHT22;4255;48.730;9.156;2022-11-24T16:25:00;9.40;99.90
8436;DHT22;4255;48.730;9.156;2022-11-24T16:27:27;9.30;99.90
8436;DHT22;4255;48.730;9.156;2022-11-24T16:29:52;9.30;99.90
8436;DHT22;4255;48.730;9.156;2022-11-24T16:32:18;9.00;99.90
8436;DHT22;4255;48.730;9.156;2022-11-24T16:34:43;8.90;99.90
8436;DHT22;4255;48.730;9.156;2022-11-24T16:37:09;8.80;99.90
8436;DHT22;4255;48.730;9.156;2022-11-24T16:39:35;8.70;99.90
8436;DHT22;4255;48.730;9.156;2022-11-24T16:42:00;8.70;99.90
8436;DHT22;4255;48.730;9.156;2022-11-24T16:44:26;8.70;99.90
8436;DHT22;4255;48.730;9.156;2022-11-24T16:46:51;8.70;99.90
8436;DHT22;4255;48.730;9.156;2022-11-24T16:49:17;8.70;99.90
8436;DHT22;4255;48.730;9.156;2022-11-24T16:51:42;8.70;99.90
8436;DHT22;4255;48.730;9.156;2022-11-24T16:54:09;8.70;99.90
8436;DHT22;4255;48.730;9.156;2022-11-24T16:56:35;8.70;99.90
8436;DHT22;4255;48.730;9.156;2022-11-24T16:59:01;8.40;99.90
8436;DHT22;4255;48.730;9.156;2022-11-24T17:01:26;8.30;99.90
8436;DHT22;4255;48.730;9.156;2022-11-24T17:03:53;8.30;99.90
8436;DHT22;4255;48.730;9.156;2022-11-24T17:06:19;8.20;99.90
8436;DHT22;4255;48.730;9.156;2022-11-24T17:08:45;8.10;99.90
8436;DHT22;4255;48.730;9.156;2022-11-24T17:11:15;8.00;99.90
8436;DHT22;4255;48.730;9.156;2022-11-24T17:13:42;8.10;99.90
8436;DHT22;4255;48.730;9.156;2022-11-24T17:16:13;8.20;99.90
8436;DHT22;4255;48.730;9.156;2022-11-24T17:18:39;8.20;99.90
8436;DHT22;4255;48.730;9.156;2022-11-24T17:21:08;8.30;99.90
8436;DHT22;4255;48.730;9.156;2022-11-24T17:23:34;8.30;99.90
8436;DHT22;4255;48.730;9.156;2022-11-24T17:26:00;8.30;99.90
8436;DHT22;4255;48.730;9.156;2022-11-24T17:28:26;8.20;99.90
8436;DHT22;4255;48.730;9.156;2022-11-24T17:30:52;8.30;99.90
8436;DHT22;4255;48.730;9.156;2022-11-24T17:33:18;8.30;99.90
8436;DHT22;4255;48.730;9.156;2022-11-24T17:35:43;8.30;99.90
8436;DHT22;4255;48.730;9.156;2022-11-24T17:38:09;8.30;99.90
8436;DHT22;4255;48.730;9.156;2022-11-24T17:40:34;8.30;99.90
8436;DHT22;4255;48.730;9.156;2022-11-24T17:43:00;8.30;99.90
8436;DHT22;4255;48.730;9.156;2022-11-24T17:45:27;8.30;99.90
8436;DHT22;4255;48.730;9.156;2022-11-24T17:47:53;8.30;99.90
8436;DHT22;4255;48.730;9.156;2022-11-24T17:50:18;8.30;99.90
8436;DHT22;4255;48.730;9.156;2022-11-24T17:52:44;8.40;99.90
8436;DHT22;4255;48.730;9.156;2022-11-24T17:55:10;8.10;99.90
8436;DHT22;4255;48.730;9.156;2022-11-24T17:57:35;7.90;99.90
8436;DHT22;4255;48.730;9.156;2022-11-24T18:00:02;7.70;99.90
8436;DHT22;4255;48.730;9.156;2022-11-24T18:02:27;7.60;99.90
8436;DHT22;4255;48.730;9.156;2022-11-24T18:04:53;7.50;99.90
8436;DHT22;4255;48.730;9.156;2022-11-24T18:07:19;7.50;99.90
8436;DHT22;4255;48.730;9.156;2022-11-24T18:09:44;7.40;99.90
8436;DHT22;4255;48.730;9.156;2022-11-24T18:12:10;7.30;99.90
8436;DHT22;4255;48.730;9.156;2022-11-24T18:14:35;7.30;99.90
8436;DHT22;4255;48.730;9.156;2022-11-24T18:17:01;7.20;99.90